New Philadelphia, OH (44663)

4:24 PM EST on December 08, 2016 (GMT -0500)
Steele Hill | | Change Station

Elev 942 ft 40.48 °N, 81.48 °W | Updated 0 second ago

Overcast
Overcast
25.6 °F
Feels Like 19 °F
N
6.0
Wind Variable Wind from WNW
Gusts 18.0 mph

Today
High -- | Low -- °F
--% Chance of Precip.
Yesterday
High -- | Low -- °F
Precip. -- in
Pressure 30.24 in
Visibility 10.0 miles
Clouds Few 3600 ft
Overcast 5000 ft
Windchill 19 °F
Dew Point 16 °F
Humidity 68%
Rainfall 0.00 in
Snow Depth Not available.
7:36 AM 4:58 PM
Waxing Gibbous, 67% visible
METAR KPHD 082053Z AUTO 27008G19KT 10SM FEW036 OVC050 M03/M09 A3020 RMK AO2 SNE1958 SLP238 P0000 60000 T10331089 53012
Pressure 30.24 in
Visibility 10.0 miles
Clouds Few 3600 ft
Overcast 5000 ft
Windchill 19 °F
Dew Point 16 °F
Humidity 68%
Rainfall 0.00 in
Snow Depth Not available.
7:36 AM 4:58 PM
Waxing Gibbous, 67% visible
METAR KPHD 082053Z AUTO 27008G19KT 10SM FEW036 OVC050 M03/M09 A3020 RMK AO2 SNE1958 SLP238 P0000 60000 T10331089 53012

10-Day Weather Forecast

Almanac

Astronomy

Dec. 08, 2016 Rise Set
Actual Time
Civil Twilight
Nautical Twilight
Astronomical Twilight
Moon
Length of Visible Light
Length of Day
Tomorrow will be .
, % of the Moon is Illuminated

Today's Extremes

State Highs State Lows

Community

WunderPhotos

Upload Photos

1,956,277 photos uploaded!

WunderBlog® & News

Nearby

Air Quality

  Air Quality AQ Index Pollutant
Not available.

Snow Depth

Station Depth Elevation

Earthquake Activity

City Distance Mag. Time & Date
Minimum magnitude displayed is 2.5.

Coastal Water Temperatures

Place Temperature

Stations

Nearby Weather Stations

Station Location Temp. Windchill Dew Point Humidity Wind Precip. Elev Updated Type
                   

Watches & Warnings

There are currently no watches in effect.